Time;durP1;ratioP1;P1;durP2;ratioP2;P2;SDS_P1;SDS_P2;PMS_P1;PMS_P2;Temp;Humidity;BMP_temperature;BMP_pressure;BME280_temperature;BME280_humidity;BME280_pressure;Samples;Min_cycle;Max_cycle;Signal;HPM_P1;HPM_P2
2021/10/23 01:15:22;;;;;;;8.00;2.60;;;5.20;92.60;;;;;;5036655;28;20305;-88
2021/10/23 01:17:51;;;;;;;5.27;2.17;;;5.20;92.70;;;;;;5012542;28;20219;-88
2021/10/23 01:20:19;;;;;;;4.83;2.10;;;5.20;92.80;;;;;;5018220;28;20243;-88
2021/10/23 01:22:46;;;;;;;7.67;2.40;;;5.20;92.80;;;;;;5052968;28;20202;-89
2021/10/23 01:25:13;;;;;;;6.07;2.40;;;5.10;92.90;;;;;;5038737;28;20650;-88
2021/10/23 01:27:46;;;;;;;4.80;2.37;;;5.10;93.20;;;;;;5037638;28;20246;-88
2021/10/23 01:30:17;;;;;;;4.40;2.33;;;5.10;92.90;;;;;;5038540;28;20191;-86
2021/10/23 01:32:53;;;;;;;6.30;2.67;;;5.10;93.10;;;;;;5073203;28;20201;-89
2021/10/23 01:35:22;;;;;;;6.57;2.30;;;5.10;92.80;;;;;;5077686;28;20193;-89
2021/10/23 01:37:50;;;;;;;4.50;2.27;;;5.10;93.00;;;;;;5078127;28;20221;-89
2021/10/23 01:40:19;;;;;;;6.50;2.57;;;5.20;92.80;;;;;;5078249;28;20203;-89
2021/10/23 01:42:46;;;;;;;5.70;2.23;;;5.10;92.70;;;;;;5063406;28;20228;-89
2021/10/23 01:45:41;;;;;;;4.03;2.53;;;5.10;92.90;;;;;;5057941;28;20186;-89
2021/10/23 01:48:07;;;;;;;7.27;2.73;;;5.20;92.60;;;;;;5057380;28;20296;-90
2021/10/23 01:50:36;;;;;;;5.97;2.60;;;5.30;92.40;;;;;;5057138;28;20194;-89
2021/10/23 01:53:03;;;;;;;5.30;2.57;;;5.20;92.40;;;;;;5058337;28;20281;-89
2021/10/23 01:55:30;;;;;;;4.40;2.80;;;5.20;92.40;;;;;;5057493;28;20198;-90
2021/10/23 01:57:58;;;;;;;6.73;2.50;;;5.20;92.50;;;;;;5041370;28;20224;-89
2021/10/23 02:00:34;;;;;;;6.33;3.20;;;5.20;92.70;;;;;;5058125;28;20236;-90
2021/10/23 02:03:01;;;;;;;4.97;2.40;;;5.10;92.70;;;;;;5058024;28;20237;-89
2021/10/23 02:05:28;;;;;;;4.47;2.83;;;5.20;92.70;;;;;;5057402;28;20201;-91
2021/10/23 02:07:57;;;;;;;6.03;2.50;;;5.10;92.70;;;;;;5058209;28;20196;-89
2021/10/23 02:10:42;;;;;;;6.43;2.70;;;5.20;92.40;;;;;;5058190;28;20190;-89
2021/10/23 02:15:46;;;;;;;7.13;2.83;;;5.10;92.60;;;;;;5227247;22;20232;-89
2021/10/23 02:18:54;;;;;;;6.33;2.60;;;5.10;92.70;;;;;;5078276;28;20224;-89
2021/10/23 02:25:21;;;;;;;5.27;2.47;;;5.10;92.40;;;;;;5066286;28;20534;-89
2021/10/23 02:27:48;;;;;;;6.27;2.33;;;5.20;92.10;;;;;;5077100;28;20219;-89
2021/10/23 02:30:15;;;;;;;6.43;2.47;;;5.20;91.80;;;;;;5076961;28;20201;-89
2021/10/23 02:32:42;;;;;;;5.00;2.10;;;5.30;91.50;;;;;;5076567;28;20228;-89
2021/10/23 02:35:09;;;;;;;3.73;2.37;;;5.40;91.00;;;;;;5094682;28;20200;-89
2021/10/23 02:37:36;;;;;;;3.07;2.23;;;5.40;90.80;;;;;;5079373;28;20229;-88
2021/10/23 02:40:03;;;;;;;4.93;2.13;;;5.50;91.20;;;;;;5064135;28;20218;-88
2021/10/23 02:42:32;;;;;;;4.53;2.30;;;5.50;90.70;;;;;;5056589;28;20244;-88
2021/10/23 02:44:59;;;;;;;4.93;1.90;;;5.50;90.80;;;;;;5065532;28;20215;-87
2021/10/23 02:47:25;;;;;;;4.93;2.40;;;5.50;90.60;;;;;;5076706;28;20584;-88
2021/10/23 02:49:52;;;;;;;6.20;2.23;;;5.50;90.80;;;;;;5077477;28;20598;-88
2021/10/23 02:52:19;;;;;;;5.23;2.30;;;5.60;90.70;;;;;;5078930;28;20185;-90
2021/10/23 02:54:46;;;;;;;6.57;2.30;;;5.80;90.30;;;;;;5081047;28;20645;-90
2021/10/23 02:57:14;;;;;;;4.90;2.20;;;5.90;89.50;;;;;;5079269;28;20305;-90
2021/10/23 02:59:44;;;;;;;5.50;2.27;;;5.90;89.60;;;;;;5080481;28;20265;-92
2021/10/23 03:02:11;;;;;;;5.33;2.27;;;5.90;90.20;;;;;;5080561;28;20244;-92
2021/10/23 03:04:38;;;;;;;6.33;2.50;;;5.90;90.50;;;;;;5089403;28;20192;-93
2021/10/23 03:07:05;;;;;;;4.20;2.00;;;5.90;90.30;;;;;;5079306;28;20249;-91
2021/10/23 03:09:32;;;;;;;6.77;2.20;;;6.00;90.40;;;;;;5075106;28;20288;-91
2021/10/23 03:11:59;;;;;;;5.27;2.20;;;6.00;90.50;;;;;;5078009;28;20288;-92
2021/10/23 03:14:26;;;;;;;4.63;2.10;;;6.00;89.70;;;;;;5066664;28;20190;-90
2021/10/23 03:16:55;;;;;;;4.43;2.13;;;6.10;90.20;;;;;;5059497;28;20273;-92
2021/10/23 03:19:22;;;;;;;4.07;2.20;;;6.30;90.20;;;;;;5061232;28;20213;-90
2021/10/23 03:21:48;;;;;;;4.07;1.90;;;6.40;86.60;;;;;;5070627;28;20715;-91
2021/10/23 03:24:15;;;;;;;4.63;2.10;;;6.50;87.10;;;;;;5069425;28;20200;-92
2021/10/23 03:26:42;;;;;;;3.43;2.10;;;6.50;85.60;;;;;;5059762;28;20312;-91
2021/10/23 03:29:09;;;;;;;6.00;2.20;;;6.50;86.20;;;;;;5050710;28;20285;-91
2021/10/23 03:31:36;;;;;;;5.97;2.10;;;6.50;86.30;;;;;;5064014;28;20286;-91
2021/10/23 03:34:04;;;;;;;2.50;1.53;;;6.50;86.60;;;;;;5041070;28;20218;-89
2021/10/23 03:36:31;;;;;;;4.13;1.87;;;6.60;87.80;;;;;;5057458;28;20249;-89
2021/10/23 03:38:58;;;;;;;4.17;2.03;;;6.60;85.40;;;;;;5075123;28;20785;-89
2021/10/23 03:41:25;;;;;;;3.87;1.90;;;6.60;85.80;;;;;;5058114;28;20698;-89
2021/10/23 03:43:52;;;;;;;7.53;2.30;;;6.60;85.90;;;;;;5079125;28;20197;-89
2021/10/23 03:46:19;;;;;;;4.77;2.00;;;6.60;85.10;;;;;;5079545;28;20299;-90
2021/10/23 03:48:46;;;;;;;4.73;2.00;;;6.60;85.10;;;;;;5076805;28;20276;-89
2021/10/23 03:51:14;;;;;;;3.13;1.83;;;6.50;85.30;;;;;;5074685;28;20253;-89
2021/10/23 03:53:41;;;;;;;5.63;2.17;;;6.50;86.60;;;;;;5049150;28;20198;-89
2021/10/23 03:56:16;;;;;;;5.37;2.10;;;6.60;85.10;;;;;;5045815;28;20238;-89
2021/10/23 03:58:43;;;;;;;5.40;2.00;;;6.70;84.50;;;;;;5060996;28;20213;-89
2021/10/23 04:01:10;;;;;;;6.93;2.00;;;6.70;84.00;;;;;;5060718;28;20236;-90
2021/10/23 04:03:36;;;;;;;5.03;2.10;;;6.60;85.20;;;;;;5061664;28;20460;-90
2021/10/23 04:06:03;;;;;;;5.23;1.80;;;6.60;85.50;;;;;;5044808;28;20718;-89
2021/10/23 04:11:16;;;;;;;2.87;1.80;;;6.60;87.40;;;;;;5017791;28;20755;-89
2021/10/23 04:16:24;;;;;;;6.47;2.17;;;6.70;85.90;;;;;;5155695;22;20245;-90
2021/10/23 04:18:52;;;;;;;4.07;1.97;;;6.60;87.10;;;;;;5058037;28;20228;-90
2021/10/23 04:21:19;;;;;;;4.10;1.60;;;6.80;85.40;;;;;;5058391;28;20230;-91
2021/10/23 04:23:47;;;;;;;6.60;2.20;;;6.80;85.20;;;;;;5058224;28;20204;-90
2021/10/23 04:26:14;;;;;;;5.10;2.03;;;6.80;84.90;;;;;;5066850;28;20202;-90
2021/10/23 04:28:41;;;;;;;3.63;1.60;;;6.70;85.70;;;;;;5058394;28;20197;-90
2021/10/23 04:31:08;;;;;;;5.67;1.90;;;6.60;86.20;;;;;;5065562;28;20208;-90
2021/10/23 04:33:35;;;;;;;3.70;1.90;;;6.60;87.10;;;;;;5058022;28;20186;-90
2021/10/23 04:39:26;;;;;;;5.53;2.10;;;6.70;86.70;;;;;;5047626;28;20268;-91
2021/10/23 04:41:54;;;;;;;3.70;1.83;;;6.90;86.90;;;;;;5060006;28;20631;-90
2021/10/23 04:44:20;;;;;;;4.30;1.87;;;6.90;85.80;;;;;;5050153;28;20221;-90
2021/10/23 04:46:48;;;;;;;5.27;2.00;;;6.90;85.50;;;;;;5047538;28;20221;-91
2021/10/23 04:49:15;;;;;;;6.73;2.10;;;6.80;85.60;;;;;;5061796;28;20209;-91
2021/10/23 04:51:42;;;;;;;5.68;2.15;;;6.70;86.50;;;;;;5059598;28;20205;-92
2021/10/23 04:54:09;;;;;;;5.47;1.90;;;6.70;87.30;;;;;;5058467;28;20194;-91
2021/10/23 04:56:37;;;;;;;5.47;1.97;;;6.70;87.70;;;;;;5058402;28;20252;-90
2021/10/23 04:59:04;;;;;;;3.67;1.80;;;6.70;86.70;;;;;;5057851;28;20561;-91
2021/10/23 05:01:31;;;;;;;3.53;1.93;;;6.80;86.80;;;;;;5038041;28;20234;-90
2021/10/23 05:03:58;;;;;;;8.53;2.20;;;6.80;86.70;;;;;;5038249;28;20198;-91
2021/10/23 05:06:25;;;;;;;2.83;1.70;;;6.70;87.10;;;;;;5049476;28;20233;-91
2021/10/23 05:09:21;;;;;;;4.77;2.07;;;6.70;87.80;;;;;;5057398;28;20615;-90
2021/10/23 05:11:49;;;;;;;4.60;1.60;;;6.80;85.90;;;;;;5058935;28;20668;-91
2021/10/23 07:03:02;;;;;;;6.00;2.20;;;8.10;78.90;;;;;;5030167;28;20333;-91
2021/10/23 07:08:55;;;;;;;3.95;1.83;;;8.30;77.00;;;;;;5032230;28;20213;-91
2021/10/23 07:11:22;;;;;;;5.03;2.28;;;8.40;76.00;;;;;;5039422;28;20202;-92
2021/10/23 07:13:49;;;;;;;3.15;1.80;;;8.40;75.90;;;;;;5039063;28;20285;-90
2021/10/23 07:16:15;;;;;;;4.10;1.92;;;8.50;75.10;;;;;;5041179;28;20222;-90
2021/10/23 07:18:44;;;;;;;4.13;1.80;;;8.60;73.50;;;;;;5037540;28;20554;-91
2021/10/23 07:21:36;;;;;;;3.08;1.80;;;8.60;73.50;;;;;;5056377;28;20297;-86
2021/10/23 07:24:03;;;;;;;6.05;1.90;;;8.60;74.40;;;;;;5045777;28;20285;-89
2021/10/23 07:26:30;;;;;;;4.03;1.80;;;8.60;76.30;;;;;;5044421;28;20609;-89
2021/10/23 07:28:57;;;;;;;3.30;1.88;;;8.70;73.80;;;;;;5025851;28;20194;-89
2021/10/23 07:35:20;;;;;;;3.72;1.95;;;8.80;75.80;;;;;;5044040;28;20178;-89
2021/10/23 07:37:54;;;;;;;5.45;1.95;;;8.70;75.10;;;;;;5044076;28;20645;-88
2021/10/23 07:40:21;;;;;;;4.28;1.80;;;8.80;73.70;;;;;;5052125;28;20226;-89
2021/10/23 07:42:48;;;;;;;4.57;2.05;;;9.00;73.90;;;;;;5045443;28;20249;-89
2021/10/23 08:36:49;;;;;;;5.18;1.95;;;11.90;48.50;;;;;;4985307;28;20205;-91
2021/10/23 08:42:51;;;;;;;4.03;1.75;;;11.60;53.90;;;;;;5030472;28;20185;-90
2021/10/23 08:45:28;;;;;;;4.70;1.95;;;12.00;53.40;;;;;;5041158;28;20230;-89
2021/10/23 08:51:38;;;;;;;7.43;1.80;;;12.70;44.40;;;;;;5042332;28;20222;-90
2021/10/23 08:57:35;;;;;;;3.63;1.60;;;14.50;37.20;;;;;;5077960;28;20236;-91
2021/10/23 09:03:25;;;;;;;6.57;2.05;;;16.00;31.50;;;;;;5097942;28;20208;-90
2021/10/23 09:05:52;;;;;;;6.75;2.10;;;17.40;29.90;;;;;;5095321;28;20311;-85
2021/10/23 09:08:22;;;;;;;5.13;2.20;;;19.30;22.70;;;;;;5086173;28;20315;-88
2021/10/23 09:10:51;;;;;;;4.90;2.17;;;20.80;20.00;;;;;;5080475;28;20229;-87
2021/10/23 09:13:27;;;;;;;4.20;2.10;;;21.70;19.10;;;;;;5091630;28;20294;-89
2021/10/23 09:15:54;;;;;;;5.20;2.08;;;22.60;16.90;;;;;;5107971;28;20221;-88
2021/10/23 09:18:40;;;;;;;5.15;2.50;;;23.60;16.00;;;;;;5104209;28;20191;-88
2021/10/23 09:21:38;;;;;;;8.10;2.55;;;24.40;14.60;;;;;;5105334;28;20258;-87
2021/10/23 09:24:20;;;;;;;5.78;2.50;;;23.80;14.20;;;;;;5106927;28;20191;-86
2021/10/23 09:26:47;;;;;;;5.80;2.33;;;21.90;16.90;;;;;;5105331;28;20237;-88
2021/10/23 09:29:17;;;;;;;3.65;2.20;;;20.80;18.60;;;;;;5108358;27;20282;-88
2021/10/23 09:31:46;;;;;;;4.47;2.33;;;20.40;18.90;;;;;;5108043;28;20662;-87
2021/10/23 09:34:13;;;;;;;6.72;2.47;;;21.70;18.60;;;;;;5103341;28;20478;-88
2021/10/23 09:36:49;;;;;;;5.53;2.85;;;22.30;16.60;;;;;;5109513;28;20324;-88
2021/10/23 09:39:24;;;;;;;3.83;2.55;;;21.00;17.40;;;;;;5106259;28;20221;-88
2021/10/23 09:42:08;;;;;;;6.25;2.67;;;21.40;17.90;;;;;;5115322;27;20238;-89
2021/10/23 09:44:36;;;;;;;6.00;2.67;;;21.60;16.40;;;;;;5104035;28;20283;-87
2021/10/23 09:47:03;;;;;;;5.78;2.50;;;21.60;17.50;;;;;;5106719;28;20732;-87
2021/10/23 09:49:30;;;;;;;2.67;2.17;;;21.30;18.50;;;;;;5119224;27;20296;-87
2021/10/23 09:52:06;;;;;;;3.95;2.72;;;22.40;16.20;;;;;;5103461;27;20223;-87
2021/10/23 09:54:33;;;;;;;5.72;2.50;;;21.60;16.40;;;;;;5105950;28;20200;-89
2021/10/23 09:57:09;;;;;;;6.30;2.63;;;20.60;18.20;;;;;;5097963;28;20224;-86
2021/10/23 09:59:38;;;;;;;4.00;2.22;;;19.20;19.80;;;;;;5107106;27;20210;-89
2021/10/23 10:02:06;;;;;;;2.95;2.00;;;17.60;23.00;;;;;;5108889;28;20774;-88
2021/10/23 10:04:34;;;;;;;3.65;2.22;;;16.80;25.00;;;;;;5108403;27;20212;-89
2021/10/23 10:07:04;;;;;;;3.55;2.00;;;16.80;26.50;;;;;;5117933;27;20224;-87
2021/10/23 10:09:32;;;;;;;5.53;2.05;;;17.70;24.20;;;;;;5109404;28;20193;-88
2021/10/23 10:11:59;;;;;;;5.38;2.20;;;17.60;23.30;;;;;;5100350;28;20220;-88
2021/10/23 10:14:31;;;;;;;4.80;1.90;;;17.40;24.40;;;;;;5109068;28;20657;-89
2021/10/23 10:17:02;;;;;;;3.85;1.80;;;17.20;24.70;;;;;;5107533;28;20219;-87
2021/10/23 10:19:32;;;;;;;4.05;1.98;;;18.10;22.50;;;;;;5102175;28;20327;-86
2021/10/23 10:22:08;;;;;;;5.93;2.60;;;19.50;20.30;;;;;;5109475;28;20227;-86
2021/10/23 10:24:49;;;;;;;20.73;12.68;;;20.20;18.80;;;;;;5110927;28;20279;-86
2021/10/23 10:27:44;;;;;;;5.78;3.22;;;19.90;18.40;;;;;;5102597;28;20223;-88
2021/10/23 10:30:28;;;;;;;4.72;2.08;;;19.30;19.90;;;;;;5112590;27;20200;-90
2021/10/23 10:33:15;;;;;;;3.60;2.10;;;18.90;20.20;;;;;;5114252;27;20220;-88
2021/10/23 10:35:58;;;;;;;3.30;1.98;;;18.40;22.10;;;;;;5108865;28;20239;-88
2021/10/23 10:38:43;;;;;;;3.70;2.03;;;17.40;24.50;;;;;;5102005;28;20206;-88
2021/10/23 10:44:13;;;;;;;7.13;3.60;;;18.40;25.00;;;;;;5068542;28;20773;-87
2021/10/23 10:47:11;;;;;;;6.43;3.60;;;19.10;19.70;;;;;;5098582;28;20228;-87
2021/10/23 10:49:54;;;;;;;6.50;2.80;;;20.00;20.00;;;;;;5104476;28;20189;-88
2021/10/23 10:52:53;;;;;;;4.32;2.17;;;19.70;20.00;;;;;;5106141;28;20272;-89
2021/10/23 10:55:21;;;;;;;3.47;2.05;;;18.90;19.70;;;;;;5111064;28;20561;-88
2021/10/23 10:58:09;;;;;;;4.10;2.05;;;18.30;22.90;;;;;;5118547;28;20218;-87
2021/10/23 11:01:14;;;;;;;3.90;2.00;;;16.80;23.80;;;;;;5111430;28;20222;-87
2021/10/23 11:03:47;;;;;;;4.82;2.10;;;15.50;28.30;;;;;;5120464;28;20213;-90
2021/10/23 11:06:41;;;;;;;5.55;2.05;;;15.00;27.90;;;;;;5114775;28;20964;-89
2021/10/23 11:09:49;;;;;;;4.88;2.30;;;15.40;28.20;;;;;;5107477;28;20555;-91
2021/10/23 11:12:21;;;;;;;5.28;2.17;;;15.30;28.10;;;;;;5103972;28;20219;-92
2021/10/23 11:14:49;;;;;;;1.98;1.35;;;15.30;30.20;;;;;;5108786;28;20727;-91
2021/10/23 11:17:20;;;;;;;3.70;1.50;;;15.30;26.30;;;;;;5098319;28;20224;-90
2021/10/23 11:19:50;;;;;;;3.75;1.58;;;15.00;26.70;;;;;;5107390;28;20230;-91
2021/10/23 11:22:19;;;;;;;3.50;1.60;;;14.90;27.80;;;;;;5119937;28;20227;-91
2021/10/23 11:25:00;;;;;;;2.65;1.55;;;14.90;26.40;;;;;;5104292;28;20227;-93
2021/10/23 11:27:33;;;;;;;4.97;1.60;;;14.90;27.70;;;;;;5114381;28;20231;-91
2021/10/23 11:30:25;;;;;;;2.10;1.67;;;15.10;28.00;;;;;;5106673;28;20632;-93
2021/10/23 11:33:10;;;;;;;3.40;1.50;;;15.10;28.00;;;;;;5103026;28;20212;-90
2021/10/23 11:39:01;;;;;;;3.63;1.80;;;14.60;27.50;;;;;;5111874;28;20180;-89
2021/10/23 11:41:29;;;;;;;3.08;1.60;;;14.10;27.10;;;;;;5111403;28;20234;-92
2021/10/23 11:44:06;;;;;;;3.85;1.70;;;13.60;30.20;;;;;;5112877;28;20206;-88
2021/10/23 11:46:58;;;;;;;4.28;1.63;;;13.50;30.70;;;;;;5101603;28;20243;-88
2021/10/23 11:49:32;;;;;;;4.88;1.60;;;13.50;29.40;;;;;;5124922;28;20199;-92
2021/10/23 11:52:54;;;;;;;3.63;1.70;;;13.60;28.80;;;;;;5112720;28;20318;-89
2021/10/23 11:55:33;;;;;;;3.20;1.55;;;13.70;29.50;;;;;;5119645;28;20212;-88
2021/10/23 11:58:02;;;;;;;2.55;1.70;;;13.90;27.00;;;;;;5112212;28;20267;-89
2021/10/23 12:00:30;;;;;;;4.68;1.88;;;13.70;26.80;;;;;;5113284;28;20282;-89
2021/10/23 12:03:03;;;;;;;3.03;1.50;;;13.70;28.40;;;;;;5120757;28;20222;-89
2021/10/23 12:12:29;;;;;;;4.07;1.17;;;13.10;26.20;;;;;;5113910;28;20252;-89
2021/10/23 12:15:24;;;;;;;2.10;1.25;;;13.00;26.20;;;;;;5127429;28;20624;-88
2021/10/23 12:20:44;;;;;;;2.38;0.93;;;12.60;28.10;;;;;;5118223;28;20231;-88
2021/10/23 12:23:11;;;;;;;1.52;0.85;;;12.40;25.80;;;;;;5108313;28;20205;-89
2021/10/23 12:25:39;;;;;;;5.32;1.40;;;12.30;28.40;;;;;;5106658;28;20255;-88
2021/10/23 12:28:06;;;;;;;2.38;1.10;;;12.20;30.00;;;;;;5111321;28;20263;-89
2021/10/23 12:36:56;;;;;;;2.38;0.90;;;12.50;25.80;;;;;;5112714;28;20628;-87
2021/10/23 12:39:33;;;;;;;1.63;1.17;;;12.80;26.00;;;;;;5126616;28;20196;-89
2021/10/23 12:42:00;;;;;;;1.38;1.25;;;12.90;26.10;;;;;;5123956;28;20243;-89
2021/10/23 12:54:43;;;;;;;4.20;1.83;;;14.00;28.60;;;;;;5112643;28;20181;-89
2021/10/23 12:57:10;;;;;;;4.63;1.88;;;14.10;28.40;;;;;;5112678;28;20266;-89
2021/10/23 12:59:38;;;;;;;4.13;2.20;;;13.90;27.00;;;;;;5119718;28;20227;-91
2021/10/23 13:02:05;;;;;;;3.08;1.92;;;13.80;30.60;;;;;;5123492;27;20236;-91
2021/10/23 13:04:33;;;;;;;5.78;1.80;;;13.70;27.10;;;;;;5119288;28;20195;-90
2021/10/23 13:07:00;;;;;;;5.38;2.03;;;13.70;28.60;;;;;;5125959;28;20227;-90
2021/10/23 13:09:27;;;;;;;4.63;1.70;;;13.90;29.00;;;;;;5116096;28;20282;-91
2021/10/23 13:11:55;;;;;;;3.75;2.00;;;14.00;29.10;;;;;;5118649;28;20224;-90
2021/10/23 13:14:35;;;;;;;3.08;1.80;;;14.10;27.10;;;;;;5111031;28;20224;-91
2021/10/23 13:17:03;;;;;;;3.70;1.70;;;14.10;27.80;;;;;;5110728;28;20220;-91
2021/10/23 13:19:30;;;;;;;4.40;1.98;;;14.20;27.20;;;;;;5112993;27;20286;-91
2021/10/23 13:21:57;;;;;;;3.38;1.80;;;14.00;27.00;;;;;;5113769;27;20226;-92
2021/10/23 13:24:23;;;;;;;6.10;1.88;;;13.90;27.70;;;;;;5116623;28;20211;-89
2021/10/23 13:26:50;;;;;;;4.88;2.28;;;13.80;27.00;;;;;;5117259;28;20682;-91
2021/10/23 13:29:19;;;;;;;8.40;2.13;;;13.50;29.90;;;;;;5127263;28;20208;-91
2021/10/23 13:35:23;;;;;;;2.78;1.33;;;13.20;29.20;;;;;;5013464;28;20206;-89
2021/10/23 13:37:53;;;;;;;3.20;1.85;;;13.00;27.50;;;;;;5066797;28;20225;-89
2021/10/23 13:40:23;;;;;;;3.35;1.75;;;12.90;28.30;;;;;;5129943;28;20272;-90
2021/10/23 13:42:50;;;;;;;2.70;1.55;;;12.90;29.80;;;;;;5132311;28;20215;-90
2021/10/23 13:45:25;;;;;;;3.08;1.90;;;13.00;28.00;;;;;;5131455;28;20241;-90
2021/10/23 13:48:11;;;;;;;3.83;1.70;;;13.10;28.80;;;;;;5097944;28;20196;-91
2021/10/23 13:53:19;;;;;;;1.55;1.35;;;12.90;28.30;;;;;;5121355;28;20677;-90
2021/10/23 13:55:46;;;;;;;1.95;1.58;;;12.80;27.60;;;;;;5121394;28;20594;-90
2021/10/23 13:58:13;;;;;;;3.22;1.70;;;12.70;27.70;;;;;;5114626;28;20228;-89
2021/10/23 14:00:43;;;;;;;2.75;2.00;;;12.70;28.40;;;;;;5119557;28;20299;-90
2021/10/23 14:03:29;;;;;;;1.80;1.60;;;12.60;28.60;;;;;;5118156;28;20221;-90
2021/10/23 14:06:13;;;;;;;2.72;1.70;;;12.40;29.40;;;;;;5106093;28;20206;-90
2021/10/23 14:08:40;;;;;;;2.70;1.88;;;12.40;30.20;;;;;;5113540;28;20192;-89
2021/10/23 14:11:07;;;;;;;2.67;1.75;;;12.40;29.60;;;;;;5103713;28;20200;-89
2021/10/23 14:13:38;;;;;;;5.45;2.67;;;12.40;30.40;;;;;;5116441;28;20306;-89
2021/10/23 14:16:06;;;;;;;2.40;1.77;;;12.30;28.40;;;;;;5122795;27;20192;-89
2021/10/23 14:18:33;;;;;;;2.00;1.40;;;12.20;28.20;;;;;;5112824;28;20226;-88
2021/10/23 14:21:00;;;;;;;3.03;1.60;;;12.10;29.10;;;;;;5116052;28;20231;-89
2021/10/23 14:23:28;;;;;;;3.45;1.60;;;12.10;28.70;;;;;;5110890;28;20263;-88
2021/10/23 14:25:55;;;;;;;2.53;1.50;;;12.00;29.60;;;;;;5119199;28;20575;-89
2021/10/23 14:28:43;;;;;;;4.18;1.70;;;12.00;29.90;;;;;;5091424;28;20192;-88
2021/10/23 14:31:13;;;;;;;4.72;1.80;;;12.00;30.30;;;;;;5117048;27;20561;-88
2021/10/23 14:33:41;;;;;;;2.63;1.85;;;12.00;31.10;;;;;;5126348;27;20687;-88
2021/10/23 14:36:09;;;;;;;3.60;2.35;;;11.90;31.90;;;;;;5113532;28;20255;-88
2021/10/23 14:38:37;;;;;;;5.05;1.95;;;12.00;31.70;;;;;;5116576;28;20208;-89
2021/10/23 14:41:06;;;;;;;3.35;2.20;;;12.00;31.80;;;;;;5111981;28;20674;-87
2021/10/23 14:43:34;;;;;;;4.88;1.88;;;11.90;32.90;;;;;;5124746;28;20279;-88
2021/10/23 14:46:01;;;;;;;2.92;2.30;;;11.90;32.80;;;;;;5101462;28;20310;-88
2021/10/23 14:48:29;;;;;;;2.85;2.00;;;11.90;32.30;;;;;;5114611;28;20283;-88
2021/10/23 14:50:57;;;;;;;5.38;3.22;;;11.90;32.70;;;;;;5116591;28;20782;-89
2021/10/23 14:53:24;;;;;;;2.45;1.80;;;11.80;33.10;;;;;;5100784;28;20282;-88
2021/10/23 14:55:58;;;;;;;3.33;2.25;;;11.80;32.90;;;;;;5112035;28;20228;-89
2021/10/23 14:58:25;;;;;;;8.07;5.28;;;11.70;33.40;;;;;;5122817;28;20283;-87
2021/10/23 15:01:00;;;;;;;7.80;6.68;;;11.60;33.10;;;;;;5122280;28;20283;-87
2021/10/23 15:03:29;;;;;;;4.72;3.38;;;11.60;32.40;;;;;;5131493;28;20278;-88
2021/10/23 15:05:56;;;;;;;2.65;1.70;;;11.60;31.30;;;;;;5120022;28;20223;-89
2021/10/23 15:08:23;;;;;;;3.85;1.90;;;11.60;30.10;;;;;;5113307;28;20193;-88
2021/10/23 15:10:50;;;;;;;2.70;1.95;;;11.60;30.60;;;;;;5111289;28;20234;-88
2021/10/23 15:13:18;;;;;;;3.90;2.65;;;11.50;31.70;;;;;;5112948;28;20225;-88
2021/10/23 15:15:46;;;;;;;2.17;1.98;;;11.50;31.60;;;;;;5119830;28;20223;-89
2021/10/23 15:18:18;;;;;;;3.15;1.70;;;11.40;32.20;;;;;;5115844;28;20200;-89
2021/10/23 15:20:46;;;;;;;3.70;2.55;;;11.40;33.20;;;;;;5117122;28;20345;-89
2021/10/23 15:23:23;;;;;;;4.22;2.30;;;11.40;32.50;;;;;;5112196;28;20200;-88
2021/10/23 15:25:52;;;;;;;7.40;3.75;;;11.30;33.80;;;;;;5126637;28;20239;-87
2021/10/23 15:29:04;;;;;;;4.40;2.50;;;11.20;37.50;;;;;;5087479;28;20243;-89
2021/10/23 15:35:03;;;;;;;4.53;2.90;;;11.10;41.00;;;;;;5068292;28;20202;-89
2021/10/23 15:37:32;;;;;;;4.05;2.80;;;11.00;41.90;;;;;;5065101;28;20210;-88
2021/10/23 15:40:31;;;;;;;4.93;2.80;;;10.90;42.60;;;;;;5109286;28;20290;-88
2021/10/23 15:43:08;;;;;;;3.55;2.72;;;10.70;45.00;;;;;;5120888;28;20639;-89
2021/10/23 15:45:55;;;;;;;5.93;3.20;;;10.60;45.80;;;;;;5126119;28;20211;-90
2021/10/23 15:48:22;;;;;;;4.88;3.17;;;10.40;47.10;;;;;;5116865;28;20223;-91
2021/10/23 15:51:15;;;;;;;3.58;2.72;;;10.30;47.10;;;;;;5122042;28;20314;-90
2021/10/23 15:53:43;;;;;;;4.18;2.55;;;10.20;47.00;;;;;;5126355;28;20203;-90
2021/10/23 15:56:23;;;;;;;5.25;2.85;;;10.20;47.80;;;;;;5119577;28;20228;-89
2021/10/23 15:58:50;;;;;;;4.55;3.15;;;10.10;48.30;;;;;;5118108;28;20206;-90
2021/10/23 16:01:20;;;;;;;4.50;2.88;;;10.10;48.10;;;;;;5115907;28;20247;-89
2021/10/23 16:03:47;;;;;;;4.70;2.92;;;10.00;48.20;;;;;;5118238;28;20200;-90
2021/10/23 16:06:14;;;;;;;6.22;3.13;;;9.90;50.30;;;;;;5108763;28;20228;-90
2021/10/23 16:08:43;;;;;;;3.95;2.67;;;9.80;50.80;;;;;;5113889;27;20199;-89
2021/10/23 16:11:10;;;;;;;2.60;2.38;;;9.80;51.70;;;;;;5104611;27;20232;-90
2021/10/23 16:13:37;;;;;;;4.93;2.75;;;9.70;51.80;;;;;;5106149;28;20216;-91
2021/10/23 16:16:05;;;;;;;3.25;2.35;;;9.70;51.40;;;;;;5114259;28;20213;-91
2021/10/23 16:18:32;;;;;;;3.05;2.30;;;9.60;50.60;;;;;;5109926;28;20210;-90
2021/10/23 16:21:28;;;;;;;6.60;2.95;;;9.60;50.70;;;;;;5107933;28;20259;-89
2021/10/23 16:23:57;;;;;;;4.28;2.63;;;9.50;50.60;;;;;;5109857;27;20254;-90
2021/10/23 16:26:24;;;;;;;4.10;2.90;;;9.40;50.10;;;;;;5119240;27;20288;-91
2021/10/23 16:28:51;;;;;;;4.05;2.92;;;9.40;51.00;;;;;;5110896;28;20200;-89
2021/10/23 16:31:18;;;;;;;4.35;3.00;;;9.30;51.20;;;;;;5109280;28;20217;-90
2021/10/23 16:33:46;;;;;;;4.05;2.95;;;9.20;50.70;;;;;;5110089;28;20196;-91
2021/10/23 16:36:17;;;;;;;4.97;2.95;;;9.30;51.30;;;;;;5114061;28;20228;-89
2021/10/23 16:38:45;;;;;;;4.03;2.90;;;9.20;51.80;;;;;;5114791;27;20283;-89
2021/10/23 16:41:13;;;;;;;4.72;3.40;;;9.20;51.90;;;;;;5116051;28;20219;-91
2021/10/23 16:43:42;;;;;;;5.13;3.15;;;9.30;52.10;;;;;;5117263;28;20207;-89
2021/10/23 16:46:10;;;;;;;5.85;3.20;;;9.20;54.30;;;;;;5114924;28;20287;-92
2021/10/23 16:48:39;;;;;;;5.60;3.30;;;9.20;55.90;;;;;;5124001;27;20207;-91
2021/10/23 16:51:08;;;;;;;6.70;3.70;;;9.10;56.90;;;;;;5119511;28;20306;-90
2021/10/23 16:53:50;;;;;;;9.95;3.90;;;9.10;57.80;;;;;;5112571;28;20230;-91
2021/10/23 16:56:20;;;;;;;7.45;3.88;;;9.10;59.90;;;;;;5123425;28;20350;-92
2021/10/23 16:58:58;;;;;;;5.80;3.10;;;9.10;60.40;;;;;;5108324;28;20210;-90
2021/10/23 17:01:25;;;;;;;4.80;3.30;;;8.90;61.20;;;;;;5115018;28;20239;-91
2021/10/23 17:03:52;;;;;;;5.55;3.40;;;8.90;62.30;;;;;;5125361;27;20208;-92
2021/10/23 17:06:19;;;;;;;6.35;3.17;;;8.90;62.90;;;;;;5119112;28;20220;-91
2021/10/23 17:08:48;;;;;;;5.38;3.50;;;8.80;63.00;;;;;;5112552;28;20608;-90
2021/10/23 17:11:15;;;;;;;6.30;3.40;;;8.70;64.00;;;;;;5120842;28;20259;-90
2021/10/23 17:13:44;;;;;;;7.07;3.40;;;8.70;65.20;;;;;;5112440;28;20216;-90
2021/10/23 17:16:11;;;;;;;6.75;3.53;;;8.70;67.20;;;;;;5119626;28;20610;-92
2021/10/23 17:18:40;;;;;;;6.80;3.28;;;8.60;67.60;;;;;;5110235;27;20224;-91
2021/10/23 17:21:07;;;;;;;8.13;3.50;;;8.70;66.80;;;;;;5122024;28;20350;-91
2021/10/23 17:23:41;;;;;;;5.55;3.58;;;8.60;67.30;;;;;;5112296;28;20232;-91
2021/10/23 17:26:08;;;;;;;5.38;3.65;;;8.50;68.60;;;;;;5099607;28;20235;-90
2021/10/23 17:28:41;;;;;;;8.27;3.83;;;8.50;69.30;;;;;;5123027;28;20204;-91
2021/10/23 17:31:10;;;;;;;7.55;3.97;;;8.50;69.80;;;;;;5116463;28;20744;-92
2021/10/23 17:33:38;;;;;;;8.30;4.03;;;8.60;70.00;;;;;;5110643;28;20210;-92
2021/10/23 17:39:27;;;;;;;7.60;3.70;;;8.40;70.40;;;;;;5122666;28;20163;-91
2021/10/23 17:41:54;;;;;;;6.30;3.95;;;8.40;73.30;;;;;;5120845;28;20310;-92
2021/10/23 17:44:21;;;;;;;5.10;3.97;;;8.30;74.60;;;;;;5122435;28;20195;-92
2021/10/23 17:47:38;;;;;;;4.43;3.63;;;8.30;73.20;;;;;;5121054;28;20231;-92
2021/10/23 17:50:07;;;;;;;7.82;5.30;;;8.20;73.00;;;;;;5123806;28;20215;-89
2021/10/23 17:52:35;;;;;;;9.27;4.88;;;8.20;73.00;;;;;;5124381;28;20686;-89
2021/10/23 17:55:36;;;;;;;8.38;4.53;;;8.10;73.00;;;;;;5125609;28;20195;-89
2021/10/23 18:00:45;;;;;;;9.75;5.30;;;8.10;76.30;;;;;;5120453;28;20203;-90
2021/10/23 18:03:28;;;;;;;8.18;4.70;;;8.00;76.60;;;;;;5120651;28;20184;-90
2021/10/23 18:08:37;;;;;;;5.93;4.30;;;7.90;78.50;;;;;;5110543;28;20188;-91
2021/10/23 18:11:05;;;;;;;7.70;4.20;;;7.80;79.20;;;;;;5104725;28;20235;-94
2021/10/23 18:13:34;;;;;;;6.30;4.20;;;7.70;80.50;;;;;;5099498;28;20216;-91
2021/10/23 18:16:33;;;;;;;8.25;4.50;;;7.70;80.50;;;;;;5104143;28;20584;-91
2021/10/23 18:19:37;;;;;;;7.30;4.53;;;7.60;81.40;;;;;;5103986;28;20571;-93
2021/10/23 18:24:46;;;;;;;9.87;5.30;;;7.40;82.70;;;;;;5101610;28;20307;-92
2021/10/23 18:27:14;;;;;;;9.43;5.83;;;7.30;83.70;;;;;;5095866;28;20220;-91
2021/10/23 18:29:44;;;;;;;14.50;5.67;;;7.30;84.00;;;;;;5104277;27;20250;-93
2021/10/23 18:32:11;;;;;;;13.47;6.43;;;7.30;84.50;;;;;;5109855;28;20231;-92
2021/10/23 18:34:53;;;;;;;10.33;6.80;;;7.20;84.70;;;;;;5093384;28;20300;-92
2021/10/23 18:37:22;;;;;;;11.97;7.20;;;7.10;85.00;;;;;;5105440;28;20237;-93
2021/10/23 18:39:51;;;;;;;12.63;7.47;;;7.00;85.60;;;;;;5111931;27;20273;-93
2021/10/23 18:42:18;;;;;;;12.23;7.53;;;7.00;86.50;;;;;;5090221;28;20334;-92